createdAt,value
2023-10-29T00:01:46.553Z,2.15
2023-10-29T00:04:15.974Z,1.75
2023-10-29T00:06:43.955Z,1.75
2023-10-29T00:09:12.045Z,1.70
2023-10-29T00:11:39.942Z,2.00
2023-10-29T00:14:08.160Z,1.10
2023-10-29T00:16:36.096Z,1.92
2023-10-29T00:19:04.268Z,1.20
2023-10-29T00:21:35.866Z,1.50
2023-10-29T00:24:03.933Z,1.40
2023-10-29T00:26:31.955Z,2.38
2023-10-29T00:29:00.082Z,1.63
2023-10-29T00:31:28.149Z,1.98
2023-10-29T00:33:56.497Z,2.53
2023-10-29T00:36:24.540Z,1.52
2023-10-29T00:38:53.984Z,1.00
2023-10-29T00:41:22.637Z,1.35
2023-10-29T00:43:50.775Z,1.38
2023-10-29T00:46:19.822Z,1.13
2023-10-29T00:48:49.405Z,1.40
2023-10-29T00:51:17.557Z,1.20
2023-10-29T00:53:46.306Z,1.73
2023-10-29T00:56:18.359Z,1.58
2023-10-29T00:58:46.891Z,2.53
2023-10-29T01:01:14.854Z,1.13
2023-10-29T01:03:43.222Z,1.30
2023-10-29T01:06:12.565Z,1.50
2023-10-29T01:08:40.825Z,1.88
2023-10-29T01:11:08.821Z,1.55
2023-10-29T01:13:39.849Z,1.40
2023-10-29T01:16:08.571Z,1.00
2023-10-29T01:18:36.613Z,1.70
2023-10-29T01:21:05.098Z,1.30
2023-10-29T01:23:33.425Z,1.02
2023-10-29T01:26:01.385Z,1.30
2023-10-29T01:28:29.399Z,1.15
2023-10-29T01:30:59.475Z,1.40
2023-10-29T01:33:27.674Z,2.05
2023-10-29T01:35:55.812Z,1.40
2023-10-29T01:38:23.868Z,2.25
2023-10-29T01:40:51.929Z,1.30
2023-10-29T01:43:19.836Z,1.40
2023-10-29T01:45:47.766Z,1.48
2023-10-29T01:48:17.643Z,1.10
2023-10-29T01:50:45.841Z,1.00
2023-10-29T01:53:13.769Z,1.52
2023-10-29T01:55:41.694Z,1.10
2023-10-29T01:58:09.675Z,1.17
2023-10-29T02:00:37.669Z,1.30
2023-10-29T02:03:05.596Z,1.83
2023-10-29T02:05:35.272Z,1.50
2023-10-29T02:08:03.596Z,1.45
2023-10-29T02:10:31.888Z,1.17
2023-10-29T02:13:00.229Z,1.63
2023-10-29T02:15:28.335Z,1.20
2023-10-29T02:17:56.394Z,1.30
2023-10-29T02:20:24.451Z,1.30
2023-10-29T02:22:53.749Z,1.58
2023-10-29T02:25:21.644Z,0.90
2023-10-29T02:27:50.509Z,2.60
2023-10-29T02:30:19.481Z,1.20
2023-10-29T02:32:48.242Z,1.27
2023-10-29T02:35:16.344Z,1.30
2023-10-29T02:37:44.302Z,1.92
2023-10-29T02:40:14.863Z,1.40
2023-10-29T02:42:42.891Z,1.42
2023-10-29T02:45:11.342Z,1.73
2023-10-29T02:47:39.432Z,1.25
2023-10-29T02:50:08.169Z,1.30
2023-10-29T02:52:36.399Z,1.77
2023-10-29T02:55:05.212Z,1.83
2023-10-29T02:57:34.586Z,1.00
2023-10-29T03:00:02.728Z,1.27
2023-10-29T03:02:30.880Z,1.30
2023-10-29T03:04:58.902Z,1.35
2023-10-29T03:07:26.848Z,1.50
2023-10-29T03:09:54.754Z,1.40
2023-10-29T03:12:22.628Z,1.58
2023-10-29T03:14:51.901Z,1.42
2023-10-29T03:17:20.132Z,1.52
2023-10-29T03:19:48.474Z,1.17
2023-10-29T03:22:16.682Z,0.90
2023-10-29T03:24:44.600Z,1.48
2023-10-29T03:27:12.516Z,1.15
2023-10-29T03:29:40.438Z,1.20
2023-10-29T03:32:09.769Z,1.33
2023-10-29T03:34:38.107Z,1.33
2023-10-29T03:37:06.320Z,1.65
2023-10-29T03:39:34.321Z,1.10
2023-10-29T03:42:03.754Z,0.82
2023-10-29T03:44:31.789Z,1.23
2023-10-29T03:46:59.680Z,1.90
2023-10-29T03:49:28.915Z,1.20
2023-10-29T03:51:56.965Z,1.20
2023-10-29T03:54:25.757Z,1.15
2023-10-29T03:56:53.678Z,1.30
2023-10-29T03:59:21.627Z,1.33
2023-10-29T04:01:49.615Z,1.88
2023-10-29T04:04:17.594Z,1.42
2023-10-29T04:06:46.923Z,1.25
2023-10-29T04:09:14.900Z,1.02
2023-10-29T04:11:45.705Z,1.70
2023-10-29T04:14:13.684Z,1.23
2023-10-29T04:16:41.659Z,2.08
2023-10-29T04:19:09.568Z,1.38
2023-10-29T04:21:37.555Z,1.08
2023-10-29T04:24:07.962Z,1.00
2023-10-29T04:26:35.848Z,1.23
2023-10-29T04:29:03.752Z,1.13
2023-10-29T04:31:31.709Z,1.88
2023-10-29T04:33:59.597Z,1.15
2023-10-29T04:36:27.653Z,1.65
2023-10-29T04:38:56.123Z,1.48
2023-10-29T04:41:25.445Z,1.23
2023-10-29T04:43:53.445Z,1.05
2023-10-29T04:46:21.461Z,1.10
2023-10-29T04:48:49.467Z,1.45
2023-10-29T04:51:17.361Z,1.40
2023-10-29T04:53:45.242Z,1.00
2023-10-29T04:56:13.192Z,1.70
2023-10-29T04:58:42.477Z,1.73
2023-10-29T05:01:10.372Z,1.10
2023-10-29T05:03:38.314Z,1.80
2023-10-29T05:06:06.554Z,1.20
2023-10-29T05:08:34.587Z,1.20
2023-10-29T05:11:02.606Z,1.20
2023-10-29T05:13:30.483Z,2.03
2023-10-29T05:15:59.731Z,1.20
2023-10-29T05:18:27.815Z,1.40
2023-10-29T05:20:55.908Z,1.20
2023-10-29T05:23:23.825Z,1.10
2023-10-29T05:25:51.772Z,1.75
2023-10-29T05:28:19.676Z,1.40
2023-10-29T05:30:47.646Z,1.23
2023-10-29T05:33:17.039Z,1.23
2023-10-29T05:35:45.041Z,1.70
2023-10-29T05:38:13.508Z,1.10
2023-10-29T05:40:41.383Z,1.55
2023-10-29T05:43:09.245Z,1.50
2023-10-29T05:45:37.241Z,1.60
2023-10-29T05:48:05.325Z,1.10
2023-10-29T05:50:34.726Z,1.20
2023-10-29T05:53:03.370Z,1.00
2023-10-29T05:55:31.608Z,1.13
2023-10-29T05:57:59.764Z,1.48
2023-10-29T06:00:29.006Z,1.00
2023-10-29T06:02:57.053Z,1.60
2023-10-29T06:05:25.292Z,1.20
2023-10-29T06:07:54.559Z,1.73
2023-10-29T06:10:22.477Z,1.25
2023-10-29T06:12:50.446Z,1.85
2023-10-29T06:15:18.378Z,1.08
2023-10-29T06:17:47.033Z,1.13
2023-10-29T06:20:18.270Z,1.55
2023-10-29T06:22:46.730Z,1.70
2023-10-29T06:25:16.310Z,1.15
2023-10-29T06:27:44.272Z,1.00
2023-10-29T06:30:13.225Z,1.13
2023-10-29T06:32:41.369Z,1.67
2023-10-29T06:35:09.763Z,1.17
2023-10-29T06:37:37.735Z,1.25
2023-10-29T06:40:07.489Z,1.08
2023-10-29T06:42:36.761Z,1.35
2023-10-29T06:45:05.282Z,1.23
2023-10-29T06:47:33.288Z,1.52
2023-10-29T06:50:01.260Z,1.58
2023-10-29T06:52:29.154Z,1.38
2023-10-29T06:54:57.050Z,1.30
2023-10-29T06:57:25.019Z,1.85
2023-10-29T06:59:55.336Z,1.80
2023-10-29T07:02:23.327Z,1.27
2023-10-29T07:04:51.388Z,1.27
2023-10-29T07:07:19.977Z,1.42
2023-10-29T07:09:47.938Z,0.90
2023-10-29T07:12:17.173Z,1.75
2023-10-29T07:14:45.430Z,1.63
2023-10-29T07:17:14.824Z,1.35
2023-10-29T07:19:42.773Z,1.80
2023-10-29T07:22:11.001Z,1.30
2023-10-29T07:24:39.099Z,1.00
2023-10-29T07:27:07.159Z,1.83
2023-10-29T07:29:35.134Z,1.80
2023-10-29T07:32:03.136Z,1.00
2023-10-29T07:34:32.432Z,1.77
2023-10-29T07:37:00.375Z,1.15
2023-10-29T07:39:28.400Z,1.75
2023-10-29T07:41:56.336Z,1.52
2023-10-29T07:44:25.449Z,1.10
2023-10-29T07:46:53.391Z,1.38
2023-10-29T07:49:22.125Z,1.25
2023-10-29T07:51:51.940Z,2.42
2023-10-29T07:54:20.097Z,1.55
2023-10-29T07:56:48.064Z,1.73
2023-10-29T07:59:16.005Z,1.20
2023-10-29T08:01:44.567Z,1.75
2023-10-29T08:04:12.509Z,1.70
2023-10-29T08:06:40.549Z,1.38
2023-10-29T08:09:10.155Z,2.05
2023-10-29T08:11:38.857Z,1.55
2023-10-29T08:14:06.963Z,1.38
2023-10-29T08:16:34.988Z,2.00
2023-10-29T08:19:03.069Z,2.10
2023-10-29T08:21:30.940Z,1.88
2023-10-29T08:23:59.000Z,1.10
2023-10-29T08:26:30.112Z,1.35
2023-10-29T08:28:58.061Z,1.60
2023-10-29T08:31:26.050Z,2.05
2023-10-29T08:33:55.829Z,1.63
2023-10-29T08:36:25.174Z,1.40
2023-10-29T08:38:53.117Z,2.53
2023-10-29T08:41:21.363Z,1.60
2023-10-29T08:43:50.726Z,1.50
2023-10-29T08:46:18.812Z,1.23
2023-10-29T08:48:47.012Z,1.38
2023-10-29T08:51:16.023Z,2.63
2023-10-29T08:53:44.003Z,1.40
2023-10-29T08:56:11.892Z,1.75
2023-10-29T08:58:40.068Z,1.75
2023-10-29T09:01:12.621Z,1.70
2023-10-29T09:03:40.692Z,1.52
2023-10-29T09:06:09.520Z,1.52
2023-10-29T09:08:39.110Z,1.75
2023-10-29T09:11:07.097Z,1.75
2023-10-29T09:13:35.730Z,2.03
2023-10-29T09:16:03.773Z,1.83
2023-10-29T09:18:33.208Z,1.50
2023-10-29T09:21:01.208Z,1.95
2023-10-29T09:23:30.394Z,1.73
2023-10-29T09:25:59.275Z,1.95
2023-10-29T09:28:27.448Z,1.45
2023-10-29T09:30:55.883Z,1.17
2023-10-29T09:33:24.675Z,1.30
2023-10-29T09:35:54.173Z,1.77
2023-10-29T09:38:22.422Z,2.28
2023-10-29T09:40:54.301Z,1.42
2023-10-29T09:43:28.242Z,1.75
2023-10-29T09:45:57.204Z,1.40
2023-10-29T09:48:26.404Z,1.25
2023-10-29T09:50:56.475Z,1.75
2023-10-29T09:53:25.973Z,1.95
2023-10-29T09:55:55.816Z,1.33
2023-10-29T09:58:25.060Z,1.77
2023-10-29T10:00:53.525Z,1.10
2023-10-29T10:03:21.861Z,1.40
2023-10-29T10:05:49.943Z,1.48
2023-10-29T10:08:25.731Z,2.33
2023-10-29T10:10:54.105Z,1.60
2023-10-29T10:13:37.681Z,1.92
2023-10-29T10:16:10.240Z,1.50
2023-10-29T10:18:52.490Z,2.00
2023-10-29T10:21:21.800Z,2.28
2023-10-29T10:23:52.684Z,2.05
2023-10-29T10:26:32.247Z,1.80
2023-10-29T10:29:01.276Z,1.88
2023-10-29T10:31:31.801Z,1.80
2023-10-29T10:34:13.795Z,2.03
2023-10-29T10:36:41.847Z,2.10
2023-10-29T10:39:12.095Z,1.50
2023-10-29T10:41:43.569Z,1.70
2023-10-29T10:44:13.124Z,1.90
2023-10-29T10:46:44.347Z,2.03
2023-10-29T10:49:13.461Z,1.85
2023-10-29T10:51:42.272Z,1.73
2023-10-29T10:54:12.405Z,1.45
2023-10-29T10:56:40.750Z,1.55
2023-10-29T10:59:11.024Z,2.70
2023-10-29T11:01:40.227Z,1.75
2023-10-29T11:04:10.289Z,2.13
2023-10-29T11:06:39.695Z,2.92
2023-10-29T11:09:13.775Z,1.50
2023-10-29T11:11:48.199Z,1.95
2023-10-29T11:14:17.539Z,1.60
2023-10-29T11:16:50.839Z,1.90
2023-10-29T11:19:40.906Z,1.70
2023-10-29T11:22:19.826Z,2.75
2023-10-29T11:25:25.585Z,1.45
2023-10-29T11:27:54.810Z,2.67
2023-10-29T11:30:24.716Z,1.75
2023-10-29T11:33:16.912Z,3.60
2023-10-29T11:35:47.445Z,1.80
2023-10-29T11:38:34.370Z,1.90
2023-10-29T11:41:22.358Z,2.60
2023-10-29T11:44:25.856Z,2.33
2023-10-29T11:47:03.762Z,0.93
2023-10-29T11:49:52.785Z,3.00
2023-10-29T11:52:21.214Z,1.90
2023-10-29T11:54:49.339Z,2.08
2023-10-29T11:57:17.974Z,2.03
2023-10-29T11:59:56.861Z,1.52
2023-10-29T12:02:26.918Z,1.75
2023-10-29T12:04:54.951Z,2.03
2023-10-29T12:07:26.891Z,2.75
2023-10-29T12:10:02.023Z,2.70
2023-10-29T12:12:30.116Z,1.67
2023-10-29T12:14:59.434Z,2.58
2023-10-29T12:17:28.190Z,2.40
2023-10-29T12:19:56.545Z,2.38
2023-10-29T12:22:25.761Z,1.50
2023-10-29T12:24:56.454Z,2.00
2023-10-29T12:27:24.871Z,2.55
2023-10-29T12:29:53.288Z,1.75
2023-10-29T12:32:24.188Z,1.88
2023-10-29T12:34:53.181Z,1.60
2023-10-29T12:37:22.960Z,2.33
2023-10-29T12:39:52.813Z,1.77
2023-10-29T12:42:22.300Z,2.30
2023-10-29T12:44:55.220Z,2.15
2023-10-29T12:47:25.056Z,2.53
2023-10-29T12:50:01.244Z,1.80
2023-10-29T12:52:30.996Z,1.75
2023-10-29T12:54:59.772Z,2.15
2023-10-29T12:57:27.680Z,2.05
2023-10-29T12:59:55.768Z,2.53
2023-10-29T13:02:27.885Z,2.00
2023-10-29T13:04:56.030Z,1.42
2023-10-29T13:07:23.961Z,2.30
2023-10-29T13:09:53.485Z,1.98
2023-10-29T13:12:21.462Z,1.95
2023-10-29T13:14:49.820Z,2.85
2023-10-29T13:17:18.163Z,2.00
2023-10-29T13:19:48.287Z,2.00
2023-10-29T13:22:16.416Z,2.15
2023-10-29T13:24:44.867Z,1.67
2023-10-29T13:27:13.406Z,1.63
2023-10-29T13:29:41.525Z,2.08
2023-10-29T13:32:09.746Z,2.03
2023-10-29T13:34:38.168Z,4.57
2023-10-29T13:37:07.501Z,1.90
2023-10-29T13:39:35.457Z,2.10
2023-10-29T13:42:05.710Z,2.50
2023-10-29T13:44:33.866Z,2.35
2023-10-29T13:47:02.512Z,2.78
2023-10-29T13:49:30.498Z,3.58
2023-10-29T13:51:58.407Z,2.25
2023-10-29T13:54:27.783Z,2.15
2023-10-29T13:56:57.061Z,1.85
2023-10-29T13:59:25.261Z,2.70
2023-10-29T14:01:53.254Z,1.60
2023-10-29T14:04:23.183Z,2.03
2023-10-29T14:06:52.365Z,2.50
2023-10-29T14:09:20.380Z,2.17
2023-10-29T14:11:50.886Z,1.52
2023-10-29T14:14:19.084Z,1.80
2023-10-29T14:16:47.543Z,2.28
2023-10-29T14:19:15.559Z,2.42
2023-10-29T14:21:43.750Z,1.73
2023-10-29T14:24:11.796Z,2.72
2023-10-29T14:26:39.789Z,2.28
2023-10-29T14:29:09.115Z,1.77
2023-10-29T14:31:38.010Z,2.70
2023-10-29T14:34:06.397Z,1.40
2023-10-29T14:36:34.447Z,1.65
2023-10-29T14:39:03.112Z,2.20
2023-10-29T14:41:31.279Z,1.95
2023-10-29T14:44:00.858Z,1.00
2023-10-29T14:46:31.076Z,1.35
2023-10-29T14:48:59.200Z,3.33
2023-10-29T14:51:27.268Z,2.60
2023-10-29T14:53:55.409Z,1.65
2023-10-29T14:56:23.444Z,2.20
2023-10-29T14:58:51.645Z,1.63
2023-10-29T15:01:21.232Z,1.60
2023-10-29T15:03:51.861Z,1.52
2023-10-29T15:06:21.147Z,1.75
2023-10-29T15:08:53.162Z,1.60
2023-10-29T15:13:52.195Z,1.90
2023-10-29T15:16:20.401Z,1.83
2023-10-29T15:18:48.447Z,1.80
2023-10-29T15:21:19.359Z,1.70
2023-10-29T15:23:47.740Z,1.45
2023-10-29T15:26:17.559Z,1.88
2023-10-29T15:28:45.675Z,2.25
2023-10-29T15:31:13.714Z,1.65
2023-10-29T15:33:41.744Z,1.45
2023-10-29T15:36:11.594Z,1.55
2023-10-29T15:38:42.492Z,2.50
2023-10-29T15:41:10.600Z,1.50
2023-10-29T15:43:38.731Z,1.65
2023-10-29T15:46:07.045Z,1.85
2023-10-29T15:48:35.200Z,2.20
2023-10-29T15:51:03.328Z,2.22
2023-10-29T15:53:31.560Z,1.90
2023-10-29T15:56:06.802Z,1.95
2023-10-29T15:58:34.879Z,2.15
2023-10-29T16:01:02.940Z,2.53
2023-10-29T16:03:31.884Z,1.85
2023-10-29T16:06:08.686Z,2.00
2023-10-29T16:08:39.340Z,2.30
2023-10-29T16:11:08.753Z,1.90
2023-10-29T16:13:38.367Z,1.50
2023-10-29T16:16:06.979Z,1.25
2023-10-29T16:18:35.095Z,1.65
2023-10-29T16:21:03.117Z,1.77
2023-10-29T16:23:31.640Z,2.00
2023-10-29T16:25:59.795Z,1.55
2023-10-29T16:28:29.072Z,1.63
2023-10-29T16:30:57.052Z,1.27
2023-10-29T16:33:25.197Z,2.30
2023-10-29T16:35:54.281Z,1.85
2023-10-29T16:38:22.403Z,2.85
2023-10-29T16:40:51.572Z,1.45
2023-10-29T16:43:19.651Z,1.85
2023-10-29T16:45:49.010Z,2.50
2023-10-29T16:48:17.357Z,2.53
2023-10-29T16:50:59.886Z,1.58
2023-10-29T16:53:30.569Z,1.50
2023-10-29T16:56:04.482Z,1.45
2023-10-29T16:58:32.697Z,1.95
2023-10-29T17:01:02.182Z,2.50
2023-10-29T17:03:30.947Z,2.17
2023-10-29T17:05:59.228Z,1.80
2023-10-29T17:08:27.397Z,1.10
2023-10-29T17:10:59.168Z,1.40
2023-10-29T17:13:27.294Z,1.77
2023-10-29T17:15:58.274Z,2.30
2023-10-29T17:18:27.732Z,2.28
2023-10-29T17:20:56.087Z,1.67
2023-10-29T17:23:25.672Z,1.65
2023-10-29T17:25:53.831Z,1.50
2023-10-29T17:28:21.843Z,1.55
2023-10-29T17:30:49.955Z,1.15
2023-10-29T17:33:17.957Z,2.92
2023-10-29T17:35:47.449Z,1.50
2023-10-29T17:38:15.635Z,2.60
2023-10-29T17:40:43.807Z,2.58
2023-10-29T17:43:12.250Z,16.00
2023-10-29T17:45:40.278Z,13.75
2023-10-29T17:48:08.531Z,13.55
2023-10-29T17:50:36.456Z,10.57
2023-10-29T17:53:06.341Z,9.23
2023-10-29T17:55:34.322Z,6.90
2023-10-29T17:58:02.266Z,12.40
2023-10-29T18:00:30.398Z,12.27
2023-10-29T18:02:59.035Z,16.75
2023-10-29T18:05:27.127Z,15.93
2023-10-29T18:07:55.114Z,16.73
2023-10-29T18:10:24.924Z,20.88
2023-10-29T18:12:52.987Z,24.00
2023-10-29T18:15:21.103Z,24.50
2023-10-29T18:17:49.517Z,22.60
2023-10-29T18:20:17.479Z,22.63
2023-10-29T18:22:45.620Z,21.95
2023-10-29T18:25:13.565Z,20.67
2023-10-29T18:27:43.020Z,19.75
2023-10-29T18:30:11.902Z,16.85
2023-10-29T18:32:39.944Z,20.23
2023-10-29T18:35:08.951Z,18.10
2023-10-29T18:37:36.939Z,16.27
2023-10-29T18:40:06.022Z,16.58
2023-10-29T18:42:33.941Z,16.10
2023-10-29T18:45:06.324Z,15.25
2023-10-29T18:47:34.428Z,14.98
2023-10-29T18:50:06.217Z,12.85
2023-10-29T18:52:38.987Z,12.38
2023-10-29T18:55:11.253Z,12.50
2023-10-29T18:57:39.237Z,12.27
2023-10-29T19:00:09.965Z,14.52
2023-10-29T19:02:38.492Z,10.40
2023-10-29T19:05:07.371Z,11.75
2023-10-29T19:07:35.376Z,13.85
2023-10-29T19:10:04.376Z,18.30
2023-10-29T19:12:32.395Z,15.85
2023-10-29T19:15:00.426Z,15.13
2023-10-29T19:17:29.825Z,11.35
2023-10-29T19:19:57.990Z,12.07
2023-10-29T19:22:26.139Z,12.80
2023-10-29T19:24:54.380Z,14.95
2023-10-29T19:27:22.844Z,14.07
2023-10-29T19:29:55.051Z,11.65
2023-10-29T19:32:23.210Z,15.00
2023-10-29T19:34:53.159Z,10.27
2023-10-29T19:37:21.633Z,12.35
2023-10-29T19:39:49.980Z,13.50
2023-10-29T19:42:18.394Z,12.88
2023-10-29T19:44:47.764Z,11.75
2023-10-29T19:47:15.972Z,10.95
2023-10-29T19:49:44.145Z,12.18
2023-10-29T19:52:13.521Z,11.35
2023-10-29T19:54:41.520Z,10.25
2023-10-29T19:57:10.128Z,9.57
2023-10-29T19:59:38.127Z,8.55
2023-10-29T20:02:06.855Z,9.30
2023-10-29T20:04:34.941Z,10.40
2023-10-29T20:07:03.563Z,11.60
2023-10-29T20:09:34.584Z,11.93
2023-10-29T20:12:03.484Z,8.85
2023-10-29T20:14:31.513Z,7.78
2023-10-29T20:16:59.463Z,7.60
2023-10-29T20:19:27.378Z,9.30
2023-10-29T20:21:55.839Z,10.32
2023-10-29T20:24:24.665Z,9.25
2023-10-29T20:26:54.363Z,8.73
2023-10-29T20:29:22.419Z,9.70
2023-10-29T20:31:50.461Z,8.95
2023-10-29T20:34:19.099Z,9.32
2023-10-29T20:36:47.938Z,7.20
2023-10-29T20:39:15.877Z,7.53
2023-10-29T20:41:44.182Z,7.15
2023-10-29T20:44:13.914Z,7.13
2023-10-29T20:46:41.887Z,7.07
2023-10-29T20:49:14.855Z,7.03
2023-10-29T20:51:42.834Z,7.60
2023-10-29T20:54:11.245Z,6.13
2023-10-29T20:56:39.769Z,7.38
2023-10-29T20:59:07.776Z,6.40
2023-10-29T21:01:37.582Z,6.90
2023-10-29T21:04:06.253Z,7.30
2023-10-29T21:06:34.529Z,4.95
2023-10-29T21:09:02.876Z,6.20
2023-10-29T21:11:30.871Z,5.18
2023-10-29T21:13:58.740Z,6.97
2023-10-29T21:16:26.914Z,5.97
2023-10-29T21:18:56.468Z,7.28
2023-10-29T21:21:25.729Z,4.57
2023-10-29T21:23:53.822Z,3.92
2023-10-29T21:26:21.751Z,4.03
2023-10-29T21:28:49.787Z,5.70
2023-10-29T21:31:18.208Z,6.07
2023-10-29T21:33:46.385Z,4.30
2023-10-29T21:36:15.761Z,4.20
2023-10-29T21:38:45.856Z,4.78
2023-10-29T21:41:15.341Z,5.82
2023-10-29T21:43:43.711Z,3.67
2023-10-29T21:46:12.305Z,5.43
2023-10-29T21:48:40.288Z,4.63
2023-10-29T21:51:08.485Z,5.20
2023-10-29T21:53:38.054Z,4.63
2023-10-29T21:56:07.086Z,5.65
2023-10-29T21:58:35.872Z,5.82
2023-10-29T22:01:04.132Z,3.88
2023-10-29T22:03:34.125Z,5.57
2023-10-29T22:06:04.748Z,4.32
2023-10-29T22:08:33.075Z,5.43
2023-10-29T22:11:04.191Z,4.07
2023-10-29T22:13:33.801Z,2.72
2023-10-29T22:16:06.289Z,4.28
2023-10-29T22:18:34.683Z,3.58
2023-10-29T22:21:04.156Z,3.63
2023-10-29T22:23:32.257Z,3.38
2023-10-29T22:26:00.388Z,3.55
2023-10-29T22:28:30.333Z,3.42
2023-10-29T22:30:59.906Z,3.67
2023-10-29T22:33:29.988Z,4.13
2023-10-29T22:35:58.856Z,3.92
2023-10-29T22:38:27.467Z,3.15
2023-10-29T22:41:02.474Z,3.30
2023-10-29T22:43:32.047Z,3.30
2023-10-29T22:46:00.206Z,3.60
2023-10-29T22:48:28.440Z,3.47
2023-10-29T22:50:56.790Z,4.70
2023-10-29T22:53:24.866Z,2.70
2023-10-29T22:55:52.860Z,4.13
2023-10-29T22:58:20.799Z,4.28
2023-10-29T23:00:50.092Z,2.80
2023-10-29T23:03:18.401Z,2.30
2023-10-29T23:05:46.549Z,2.80
2023-10-29T23:08:14.570Z,3.67
2023-10-29T23:10:42.438Z,2.85
2023-10-29T23:13:10.481Z,2.80
2023-10-29T23:15:38.456Z,4.40
2023-10-29T23:18:07.945Z,2.65
2023-10-29T23:20:35.985Z,1.80
2023-10-29T23:23:06.486Z,1.90
2023-10-29T23:25:34.421Z,2.70
2023-10-29T23:28:02.386Z,3.80
2023-10-29T23:30:30.754Z,2.67
2023-10-29T23:32:58.733Z,3.78
2023-10-29T23:35:28.346Z,1.80
2023-10-29T23:37:56.295Z,2.85
2023-10-29T23:40:25.052Z,1.90
2023-10-29T23:42:53.054Z,3.38
2023-10-29T23:45:30.093Z,2.83
2023-10-29T23:47:58.244Z,2.45
2023-10-29T23:50:27.630Z,2.22
2023-10-29T23:53:02.749Z,3.38
2023-10-29T23:55:30.706Z,2.35
2023-10-29T23:57:58.604Z,1.60
